Time;durP1;ratioP1;P1;durP2;ratioP2;P2;SDS_P1;SDS_P2;PMS_P1;PMS_P2;Temp;Humidity;BMP_temperature;BMP_pressure;BME280_temperature;BME280_humidity;BME280_pressure;Samples;Min_cycle;Max_cycle;Signal;HPM_P1;HPM_P2
2022/01/31 00:02:06;;;;;;;;;;;;;;;3.75;97.34;99840.44;5009717;28;19913;-64
2022/01/31 00:04:32;;;;;;;;;;;;;;;3.51;100.00;99839.69;5010750;28;19913;-65
2022/01/31 00:06:57;;;;;;;;;;;;;;;3.48;100.00;99837.19;5011252;28;20008;-65
2022/01/31 00:09:23;;;;;;;;;;;;;;;3.62;100.00;99833.78;5011224;28;19925;-64
2022/01/31 00:11:57;;;;;;;;;;;;;;;3.57;100.00;99835.47;5009524;28;20401;-65
2022/01/31 00:14:33;;;;;;;;;;;;;;;3.64;100.00;99829.59;5011335;28;19971;-64
2022/01/31 00:16:59;;;;;;;;;;;;;;;3.28;100.00;99841.41;5010749;28;19960;-65
2022/01/31 00:19:24;;;;;;;;;;;;;;;3.43;100.00;99840.50;5011253;28;20298;-64
2022/01/31 00:21:49;;;;;;;;;;;;;;;3.29;100.00;99838.03;5010983;28;20317;-64
2022/01/31 00:24:15;;;;;;;;;;;;;;;3.39;100.00;99841.34;5009654;28;19914;-64
2022/01/31 00:26:40;;;;;;;;;;;;;;;3.43;100.00;99835.50;5010979;28;19924;-65
2022/01/31 00:29:05;;;;;;;;;;;;;;;3.21;100.00;99841.41;5011110;28;19920;-64
2022/01/31 00:31:31;;;;;;;;;;;;;;;3.16;100.00;99843.06;5010811;28;19920;-64
2022/01/31 00:33:56;;;;;;;;;;;;;;;3.21;100.00;99839.72;5010864;28;19921;-64
2022/01/31 00:36:22;;;;;;;;;;;;;;;3.29;100.00;99855.59;5009642;28;19955;-64
2022/01/31 00:38:47;;;;;;;;;;;;;;;3.10;100.00;99851.44;5014268;28;20319;-65
2022/01/31 00:41:12;;;;;;;;;;;;;;;2.98;100.00;99838.91;5014914;28;19913;-65
2022/01/31 00:43:38;;;;;;;;;;;;;;;2.95;100.00;99838.88;5015028;28;20359;-64
2022/01/31 00:46:10;;;;;;;;;;;;;;;2.82;100.00;99836.38;5014318;28;19921;-65
2022/01/31 00:48:41;;;;;;;;;;;;;;;3.02;100.00;99827.16;5014500;28;20422;-65
2022/01/31 00:51:07;;;;;;;;;;;;;;;2.83;100.00;99835.53;5014511;28;19928;-65
2022/01/31 00:53:32;;;;;;;;;;;;;;;3.08;100.00;99840.56;5014009;28;20000;-65
2022/01/31 00:55:57;;;;;;;;;;;;;;;2.77;100.00;99838.06;5013034;28;19976;-65
2022/01/31 00:58:23;;;;;;;;;;;;;;;2.80;100.00;99843.06;5014534;28;19917;-65
2022/01/31 01:03:23;;;;;;;;;;;;;;;2.98;100.00;99851.44;3933405;26;9999755;-66
2022/01/31 01:05:48;;;;;;;;;;;;;;;2.88;100.00;99848.91;5033612;28;19930;-65
2022/01/31 01:08:13;;;;;;;;;;;;;;;2.85;100.00;99846.41;5033976;28;19913;-65
2022/01/31 01:10:39;;;;;;;;;;;;;;;2.95;100.00;99843.91;5033724;28;19913;-65
2022/01/31 01:13:04;;;;;;;;;;;;;;;2.78;100.00;99843.06;5031728;28;19924;-65
2022/01/31 01:15:30;;;;;;;;;;;;;;;2.37;100.00;99840.50;5032251;28;19913;-65
2022/01/31 01:17:55;;;;;;;;;;;;;;;2.22;100.00;99834.59;5032307;28;19931;-65
2022/01/31 01:20:20;;;;;;;;;;;;;;;2.63;100.00;99831.31;5033296;28;19974;-66
2022/01/31 01:22:46;;;;;;;;;;;;;;;2.81;100.00;99832.19;5032326;28;19913;-65
2022/01/31 01:25:13;;;;;;;;;;;;;;;2.72;100.00;99829.66;5033388;28;19913;-65
2022/01/31 01:27:39;;;;;;;;;;;;;;;2.47;100.00;99839.69;5033349;28;19913;-66
2022/01/31 01:30:05;;;;;;;;;;;;;;;2.55;100.00;99840.53;5033282;28;20405;-66
2022/01/31 01:32:36;;;;;;;;;;;;;;;2.36;100.00;99832.94;5032047;28;19912;-65
2022/01/31 01:35:04;;;;;;;;;;;;;;;2.45;100.00;99845.53;5031889;28;19913;-66
2022/01/31 01:37:30;;;;;;;;;;;;;;;2.51;100.00;99843.88;5033264;28;19912;-66
2022/01/31 01:39:55;;;;;;;;;;;;;;;2.49;100.00;99837.19;5032838;28;20335;-67
2022/01/31 01:42:20;;;;;;;;;;;;;;;2.32;100.00;99847.16;5032893;28;19916;-66
2022/01/31 01:44:50;;;;;;;;;;;;;;;2.46;100.00;99847.19;5031927;28;20371;-65
2022/01/31 01:47:17;;;;;;;;;;;;;;;2.47;100.00;99853.91;5032747;28;19933;-66
2022/01/31 01:49:42;;;;;;;;;;;;;;;2.24;100.00;99853.81;5031112;28;19919;-66
2022/01/31 01:52:07;;;;;;;;;;;;;;;2.20;100.00;99848.81;5033380;28;20003;-65
2022/01/31 01:54:33;;;;;;;;;;;;;;;2.44;100.00;99847.19;5032876;28;19913;-66
2022/01/31 01:56:59;;;;;;;;;;;;;;;2.34;100.00;99847.16;5031137;28;19948;-66
2022/01/31 01:59:24;;;;;;;;;;;;;;;2.70;100.00;99848.91;5033083;28;19917;-67
2022/01/31 02:01:50;;;;;;;;;;;;;;;2.47;100.00;99844.72;5032755;28;19974;-66
2022/01/31 02:04:15;;;;;;;;;;;;;;;2.07;100.00;99857.09;5032886;28;20379;-66
2022/01/31 02:06:40;;;;;;;;;;;;;;;2.46;100.00;99850.53;5033063;28;20068;-66
2022/01/31 02:09:06;;;;;;;;;;;;;;;1.94;100.00;99855.38;5032412;28;19913;-66
2022/01/31 02:11:31;;;;;;;;;;;;;;;2.20;100.00;99856.31;5032783;28;19913;-66
2022/01/31 02:13:56;;;;;;;;;;;;;;;1.87;100.00;99857.00;5031928;28;20018;-67
2022/01/31 02:16:22;;;;;;;;;;;;;;;2.06;100.00;99852.94;5031323;28;19913;-66
2022/01/31 02:18:52;;;;;;;;;;;;;;;1.79;100.00;99851.13;5032395;28;19920;-66
2022/01/31 02:21:17;;;;;;;;;;;;;;;2.12;100.00;99856.28;5032452;28;19913;-66
2022/01/31 02:23:43;;;;;;;;;;;;;;;2.00;100.00;99865.44;5032013;28;20011;-67
2022/01/31 02:26:08;;;;;;;;;;;;;;;1.93;100.00;99863.72;5031218;28;19913;-66
2022/01/31 02:28:35;;;;;;;;;;;;;;;1.80;100.00;99870.34;5032416;28;19917;-66
2022/01/31 02:31:00;;;;;;;;;;;;;;;2.12;100.00;99870.50;5032416;28;19913;-66
2022/01/31 02:33:26;;;;;;;;;;;;;;;1.86;100.00;99872.91;5032126;28;19971;-66
2022/01/31 02:35:53;;;;;;;;;;;;;;;2.12;100.00;99856.28;5031020;28;19920;-67
2022/01/31 02:38:18;;;;;;;;;;;;;;;1.84;100.00;99863.69;5032262;28;19913;-67
2022/01/31 02:40:45;;;;;;;;;;;;;;;1.87;100.00;99858.69;5031874;28;19950;-66
2022/01/31 02:43:11;;;;;;;;;;;;;;;1.70;100.00;99866.13;5031919;28;19920;-66
2022/01/31 02:45:37;;;;;;;;;;;;;;;1.91;100.00;99857.84;5030724;28;19913;-66
2022/01/31 02:48:03;;;;;;;;;;;;;;;1.51;100.00;99865.16;5032053;28;19913;-65
2022/01/31 02:50:29;;;;;;;;;;;;;;;1.46;100.00;99874.31;5031863;28;19998;-65
2022/01/31 02:53:10;;;;;;;;;;;;;;;1.99;100.00;99862.09;5031822;28;19963;-66
2022/01/31 02:55:36;;;;;;;;;;;;;;;1.49;100.00;99879.34;5031827;28;19921;-65
2022/01/31 02:58:01;;;;;;;;;;;;;;;1.60;100.00;99870.25;5032002;28;19917;-65
2022/01/31 03:00:26;;;;;;;;;;;;;;;1.26;100.00;99868.34;5029719;28;20329;-66
2022/01/31 03:02:52;;;;;;;;;;;;;;;1.39;100.00;99867.59;5031857;28;19917;-65
2022/01/31 03:05:17;;;;;;;;;;;;;;;1.28;100.00;99860.84;5031617;28;19920;-65
2022/01/31 03:07:42;;;;;;;;;;;;;;;1.72;100.00;99850.25;5031539;28;19909;-65
2022/01/31 03:10:08;;;;;;;;;;;;;;;1.67;100.00;99861.06;5031586;28;19963;-64
2022/01/31 03:12:33;;;;;;;;;;;;;;;1.46;100.00;99859.31;5030043;28;19924;-64
2022/01/31 03:14:58;;;;;;;;;;;;;;;1.54;100.00;99855.19;5031517;28;19949;-64
2022/01/31 03:17:24;;;;;;;;;;;;;;;1.88;100.00;99855.34;5031434;28;19917;-64
2022/01/31 03:19:53;;;;;;;;;;;;;;;1.50;100.00;99858.50;5031363;28;20279;-64
2022/01/31 03:22:20;;;;;;;;;;;;;;;1.68;100.00;99856.06;5031326;28;19952;-64
2022/01/31 03:24:45;;;;;;;;;;;;;;;1.45;100.00;99864.28;5029872;28;20422;-64
2022/01/31 03:27:11;;;;;;;;;;;;;;;1.49;100.00;99860.97;5031444;28;20003;-64
2022/01/31 03:29:36;;;;;;;;;;;;;;;1.41;100.00;99855.91;5031267;28;19967;-64
2022/01/31 03:32:01;;;;;;;;;;;;;;;1.34;100.00;99855.88;5031076;28;19913;-65
2022/01/31 03:34:26;;;;;;;;;;;;;;;1.42;100.00;99855.09;5031185;28;19920;-64
2022/01/31 03:36:52;;;;;;;;;;;;;;;1.80;100.00;99851.97;5029504;28;19912;-65
2022/01/31 03:39:17;;;;;;;;;;;;;;;1.63;100.00;99849.38;5031067;28;19920;-65
2022/01/31 03:41:42;;;;;;;;;;;;;;;1.63;100.00;99860.22;5030871;28;19971;-65
2022/01/31 03:44:08;;;;;;;;;;;;;;;1.60;100.00;99855.22;5029749;28;19913;-65
2022/01/31 03:46:35;;;;;;;;;;;;;;;1.70;100.00;99861.94;5030777;28;19955;-65
2022/01/31 03:49:00;;;;;;;;;;;;;;;1.85;100.00;99863.69;5029735;28;19913;-66
2022/01/31 03:51:25;;;;;;;;;;;;;;;1.51;100.00;99860.16;5030887;28;19917;-64
2022/01/31 03:53:50;;;;;;;;;;;;;;;1.66;100.00;99860.22;5030978;28;20315;-65
2022/01/31 03:56:16;;;;;;;;;;;;;;;1.48;100.00;99856.81;5029788;28;19921;-64
2022/01/31 03:58:41;;;;;;;;;;;;;;;1.60;100.00;99867.75;5029715;28;19913;-65
2022/01/31 04:01:06;;;;;;;;;;;;;;;1.35;100.00;99873.41;5030851;28;20000;-64
2022/01/31 04:03:32;;;;;;;;;;;;;;;1.28;100.00;99884.22;5029107;28;19917;-65
2022/01/31 04:05:57;;;;;;;;;;;;;;;1.13;100.00;99880.75;5030556;28;19963;-65
2022/01/31 04:08:22;;;;;;;;;;;;;;;1.31;100.00;99884.22;5029592;28;19920;-65
2022/01/31 04:10:47;;;;;;;;;;;;;;;1.17;100.00;99885.78;5031406;28;19919;-64
2022/01/31 04:13:16;;;;;;;;;;;;;;;1.39;100.00;99895.13;5034848;28;20232;-61
2022/01/31 04:15:42;;;;;;;;;;;;;;;1.22;100.00;99901.69;5033434;28;19913;-64
2022/01/31 04:18:07;;;;;;;;;;;;;;;1.19;100.00;99898.31;5034609;28;20004;-64
2022/01/31 04:20:32;;;;;;;;;;;;;;;1.49;100.00;99906.03;5034448;28;19948;-65
2022/01/31 04:23:02;;;;;;;;;;;;;;;1.23;100.00;99908.34;5035128;28;19917;-65
2022/01/31 04:25:30;;;;;;;;;;;;;;;1.63;100.00;99909.47;5034347;28;19917;-65
2022/01/31 04:28:15;;;;;;;;;;;;;;;1.72;100.00;99915.38;5034389;28;19913;-64
2022/01/31 04:30:45;;;;;;;;;;;;;;;1.34;100.00;99925.97;5034335;28;20016;-63
2022/01/31 04:33:11;;;;;;;;;;;;;;;1.26;100.00;99923.41;5033665;28;20371;-63
2022/01/31 04:35:36;;;;;;;;;;;;;;;1.38;100.00;99922.66;5032423;28;19913;-64
2022/01/31 04:38:01;;;;;;;;;;;;;;;1.35;100.00;99932.63;5034820;28;20000;-63
2022/01/31 04:40:27;;;;;;;;;;;;;;;1.73;100.00;99922.09;5034197;28;19952;-63
2022/01/31 04:42:52;;;;;;;;;;;;;;;1.48;100.00;99930.28;5034416;28;19970;-64
2022/01/31 04:45:17;;;;;;;;;;;;;;;1.10;100.00;99925.75;5034239;28;19917;-64
2022/01/31 04:47:42;;;;;;;;;;;;;;;1.10;100.00;99925.75;5033828;28;19924;-63
2022/01/31 04:50:08;;;;;;;;;;;;;;;2.05;100.00;99921.41;5034152;28;19920;-62
2022/01/31 04:52:33;;;;;;;;;;;;;;;2.05;100.00;99917.25;5034224;28;19913;-63
2022/01/31 04:54:59;;;;;;;;;;;;;;;1.79;100.00;99913.75;5033235;28;19917;-64
2022/01/31 04:57:24;;;;;;;;;;;;;;;1.76;100.00;99922.09;5032770;28;19917;-63
2022/01/31 04:59:50;;;;;;;;;;;;;;;1.81;100.00;99919.63;5033560;28;19967;-63
2022/01/31 05:02:16;;;;;;;;;;;;;;;1.87;100.00;99911.28;5033616;28;19984;-63
2022/01/31 05:04:41;;;;;;;;;;;;;;;1.59;100.00;99913.63;5033723;28;20370;-63
2022/01/31 05:07:06;;;;;;;;;;;;;;;1.56;100.00;99911.13;5048864;28;19920;-61
2022/01/31 05:09:32;;;;;;;;;;;;;;;2.10;100.00;99908.06;5034038;28;20367;-64
2022/01/31 05:11:57;;;;;;;;;;;;;;;3.66;100.00;99900.78;5033612;28;19991;-63
2022/01/31 05:14:22;;;;;;;;;;;;;;;4.04;100.00;99904.06;5033542;28;19960;-64
2022/01/31 05:16:47;;;;;;;;;;;;;;;4.04;97.52;99894.81;5033813;28;19913;-65
2022/01/31 05:19:13;;;;;;;;;;;;;;;3.90;95.97;99885.66;5033614;28;19971;-64
2022/01/31 05:21:38;;;;;;;;;;;;;;;4.07;95.76;99897.34;5033360;28;19971;-64
2022/01/31 05:24:04;;;;;;;;;;;;;;;3.77;94.80;99909.13;5032759;28;19913;-65
2022/01/31 05:26:29;;;;;;;;;;;;;;;2.74;100.00;99908.28;5033270;28;20400;-64
2022/01/31 05:28:54;;;;;;;;;;;;;;;2.73;100.00;99906.63;5033079;28;19917;-63
2022/01/31 05:31:19;;;;;;;;;;;;;;;2.51;100.00;99901.56;5033265;28;19935;-64
2022/01/31 05:33:45;;;;;;;;;;;;;;;2.21;100.00;99905.63;5032851;28;19970;-63
2022/01/31 05:36:10;;;;;;;;;;;;;;;2.63;100.00;99903.28;5032591;28;19970;-64
2022/01/31 05:38:38;;;;;;;;;;;;;;;2.18;100.00;99908.94;5032993;28;19913;-65
2022/01/31 05:41:07;;;;;;;;;;;;;;;2.50;100.00;99904.91;5033142;28;20294;-64
2022/01/31 05:43:32;;;;;;;;;;;;;;;2.61;100.00;99914.97;5033194;28;20399;-64
2022/01/31 05:45:58;;;;;;;;;;;;;;;3.78;100.00;99905.81;5048209;28;20001;-65
2022/01/31 05:48:23;;;;;;;;;;;;;;;2.87;100.00;99937.63;5048136;28;20390;-64
2022/01/31 05:50:48;;;;;;;;;;;;;;;2.55;100.00;99950.91;5047245;28;19913;-64
2022/01/31 05:53:14;;;;;;;;;;;;;;;2.38;100.00;99942.47;5033041;28;19962;-64
2022/01/31 05:55:40;;;;;;;;;;;;;;;2.45;100.00;99945.84;5048495;28;19920;-65
2022/01/31 05:58:05;;;;;;;;;;;;;;;2.77;100.00;99954.31;5046553;28;20310;-65
2022/01/31 06:00:31;;;;;;;;;;;;;;;2.93;100.00;99948.47;5033087;28;19999;-65
2022/01/31 06:02:58;;;;;;;;;;;;;;;3.21;100.00;99956.94;5032631;28;19921;-64
2022/01/31 06:05:23;;;;;;;;;;;;;;;5.30;99.71;99952.91;5032628;28;20287;-64
2022/01/31 06:07:50;;;;;;;;;;;;;;;5.26;93.71;99958.81;5047077;28;19908;-64
2022/01/31 06:10:15;;;;;;;;;;;;;;;5.98;88.10;99959.91;5031958;28;19931;-64
2022/01/31 06:12:41;;;;;;;;;;;;;;;6.58;80.20;99969.31;5031689;28;20007;-64
2022/01/31 06:15:07;;;;;;;;;;;;;;;5.99;76.65;99967.47;5031645;28;20095;-65
2022/01/31 06:17:32;;;;;;;;;;;;;;;5.04;78.30;99992.53;5031495;28;20008;-64
2022/01/31 06:19:57;;;;;;;;;;;;;;;5.82;79.15;100004.56;5031577;28;19939;-64
2022/01/31 06:22:22;;;;;;;;;;;;;;;5.90;80.37;100002.84;5032541;28;19963;-63
2022/01/31 06:24:48;;;;;;;;;;;;;;;6.02;76.90;100004.47;5032387;28;20054;-64
2022/01/31 06:27:14;;;;;;;;;;;;;;;6.96;81.83;100002.53;5032428;28;19913;-64
2022/01/31 06:29:39;;;;;;;;;;;;;;;7.38;75.30;100002.78;5032233;28;20367;-64
2022/01/31 06:32:05;;;;;;;;;;;;;;;6.45;74.52;100003.16;5031964;28;20023;-64
2022/01/31 06:34:30;;;;;;;;;;;;;;;7.15;77.87;100014.94;5046155;28;19917;-64
2022/01/31 06:36:55;;;;;;;;;;;;;;;7.48;71.04;100000.09;5032617;28;19913;-64
2022/01/31 06:39:20;;;;;;;;;;;;;;;7.52;72.06;99999.19;5032262;28;20357;-64
2022/01/31 06:41:46;;;;;;;;;;;;;;;8.16;71.44;100000.66;5031955;28;19920;-64
2022/01/31 06:44:11;;;;;;;;;;;;;;;7.22;74.21;99993.75;5032195;28;19913;-64
2022/01/31 06:46:36;;;;;;;;;;;;;;;9.25;67.12;99986.63;5031831;28;19913;-64
2022/01/31 06:49:02;;;;;;;;;;;;;;;8.83;67.13;99978.25;5031987;28;20349;-64
2022/01/31 06:51:28;;;;;;;;;;;;;;;9.43;66.38;99963.34;5031856;28;19913;-63
2022/01/31 06:53:55;;;;;;;;;;;;;;;10.10;63.91;99965.09;5031879;28;19913;-64
2022/01/31 06:56:28;;;;;;;;;;;;;;;10.16;62.37;99955.59;5031661;28;19920;-64
2022/01/31 06:58:54;;;;;;;;;;;;;;;10.02;64.62;99956.81;5031737;28;20003;-64
2022/01/31 07:01:24;;;;;;;;;;;;;;;10.28;61.32;99957.00;5046690;28;20324;-65
2022/01/31 07:03:49;;;;;;;;;;;;;;;10.20;62.12;99954.63;5031284;28;20345;-64
2022/01/31 07:06:15;;;;;;;;;;;;;;;11.35;60.89;99952.06;5031684;28;20012;-64
2022/01/31 07:08:40;;;;;;;;;;;;;;;10.20;62.06;99947.00;5031708;28;20004;-64
2022/01/31 07:11:05;;;;;;;;;;;;;;;11.62;59.65;99935.09;5031417;28;20015;-64
2022/01/31 07:15:56;;;;;;;;;;;;;;;10.90;59.10;99942.47;5031194;28;19913;-64
2022/01/31 07:18:21;;;;;;;;;;;;;;;11.55;58.66;99942.97;5031321;28;19963;-64
2022/01/31 07:20:51;;;;;;;;;;;;;;;11.93;56.73;99937.47;5031347;28;19913;-64
2022/01/31 07:23:23;;;;;;;;;;;;;;;12.09;54.76;99936.03;5031254;28;19935;-64
2022/01/31 07:25:48;;;;;;;;;;;;;;;11.34;54.54;99931.75;5031518;28;20348;-64
2022/01/31 07:28:16;;;;;;;;;;;;;;;10.91;56.58;99934.81;5031399;28;19928;-65
2022/01/31 07:30:44;;;;;;;;;;;;;;;7.37;64.73;99955.63;5031257;28;19917;-64
2022/01/31 07:33:11;;;;;;;;;;;;;;;7.76;67.14;99953.25;5031487;28;19913;-64
2022/01/31 07:35:36;;;;;;;;;;;;;;;8.31;67.92;99939.63;5031187;28;19960;-64
2022/01/31 07:38:02;;;;;;;;;;;;;;;7.93;67.54;99944.53;5031235;28;19913;-63
2022/01/31 07:40:28;;;;;;;;;;;;;;;7.90;66.96;99951.31;5031014;28;19921;-66
2022/01/31 07:42:53;;;;;;;;;;;;;;;8.20;66.61;99938.97;5046149;28;19913;-64
2022/01/31 07:45:18;;;;;;;;;;;;;;;8.12;67.57;99931.50;5031187;28;19913;-64
2022/01/31 07:47:43;;;;;;;;;;;;;;;8.38;66.00;99938.63;5031002;28;20019;-64
2022/01/31 07:50:09;;;;;;;;;;;;;;;8.66;64.45;99925.38;5031074;28;19913;-64
2022/01/31 07:52:35;;;;;;;;;;;;;;;7.67;67.20;99934.88;5030813;28;20349;-64
2022/01/31 07:55:01;;;;;;;;;;;;;;;8.11;65.77;99926.47;5031044;28;19913;-65
2022/01/31 07:57:26;;;;;;;;;;;;;;;8.39;64.61;99920.88;5031068;28;19909;-63
2022/01/31 07:59:52;;;;;;;;;;;;;;;8.47;63.67;99913.97;5030931;28;19913;-63
2022/01/31 08:02:17;;;;;;;;;;;;;;;8.01;64.38;99913.16;5046022;28;19921;-62
2022/01/31 08:04:42;;;;;;;;;;;;;;;8.18;63.85;99910.31;5031062;28;19995;-63
2022/01/31 08:07:07;;;;;;;;;;;;;;;8.52;64.49;99916.38;5030885;28;20011;-63
2022/01/31 08:09:33;;;;;;;;;;;;;;;7.23;64.25;99924.66;5030717;28;20280;-62
2022/01/31 08:11:58;;;;;;;;;;;;;;;6.95;68.33;99914.13;5030529;28;19945;-66
2022/01/31 08:14:24;;;;;;;;;;;;;;;7.86;69.47;99903.34;5045816;28;20284;-64
2022/01/31 08:16:49;;;;;;;;;;;;;;;7.92;68.63;99900.69;5030823;28;20417;-64
2022/01/31 08:19:14;;;;;;;;;;;;;;;7.26;67.50;99914.47;5046126;28;19919;-64
2022/01/31 08:21:39;;;;;;;;;;;;;;;7.71;66.61;99916.25;5030476;28;20363;-64
2022/01/31 08:24:05;;;;;;;;;;;;;;;7.64;65.49;99922.28;5030924;28;19917;-64
2022/01/31 08:26:30;;;;;;;;;;;;;;;7.74;69.78;99927.13;5030763;28;19936;-64
2022/01/31 08:28:59;;;;;;;;;;;;;;;7.89;74.33;99918.44;5030340;28;19913;-64
2022/01/31 08:31:31;;;;;;;;;;;;;;;7.85;70.07;99925.25;5030646;28;19916;-64
2022/01/31 08:36:23;;;;;;;;;;;;;;;8.27;66.34;99920.28;5030541;28;19916;-65
2022/01/31 08:38:48;;;;;;;;;;;;;;;8.14;64.60;99923.91;5030431;28;20387;-67
2022/01/31 08:41:15;;;;;;;;;;;;;;;8.15;67.98;99915.44;5030050;28;20394;-64
2022/01/31 08:43:40;;;;;;;;;;;;;;;8.22;69.25;99911.94;5030580;28;20406;-65
2022/01/31 08:46:07;;;;;;;;;;;;;;;8.12;69.03;99907.91;5030631;28;19909;-64
2022/01/31 08:48:32;;;;;;;;;;;;;;;7.84;70.17;99910.94;5030139;28;20352;-65
2022/01/31 08:50:58;;;;;;;;;;;;;;;8.33;69.82;99908.34;5030315;28;19960;-64
2022/01/31 08:53:24;;;;;;;;;;;;;;;8.23;69.75;99911.88;5030334;28;19951;-64
2022/01/31 08:55:50;;;;;;;;;;;;;;;8.58;68.66;99906.97;5028724;28;19913;-65
2022/01/31 08:58:16;;;;;;;;;;;;;;;8.50;66.88;99897.84;5031871;28;19912;-64
2022/01/31 09:00:42;;;;;;;;;;;;;;;8.77;66.14;99898.97;5033997;28;19920;-64
2022/01/31 09:05:39;;;;;;;;;;;;;;;8.70;60.92;99904.19;5034164;28;19913;-64
2022/01/31 09:08:04;;;;;;;;;;;;;;;8.93;59.10;99900.31;5034069;28;19909;-64
2022/01/31 09:10:30;;;;;;;;;;;;;;;8.82;56.47;99890.41;5048673;28;19924;-64
2022/01/31 09:12:55;;;;;;;;;;;;;;;9.25;55.64;99887.72;5049223;28;19941;-65
2022/01/31 09:15:20;;;;;;;;;;;;;;;8.85;55.68;99886.97;5033662;28;19913;-67
2022/01/31 09:17:46;;;;;;;;;;;;;;;8.95;56.02;99875.75;5048989;28;19970;-65
2022/01/31 09:20:11;;;;;;;;;;;;;;;8.83;55.12;99876.03;5033559;28;19927;-65
2022/01/31 09:22:36;;;;;;;;;;;;;;;9.21;54.91;99876.78;5048839;28;19928;-65
2022/01/31 09:25:02;;;;;;;;;;;;;;;9.04;55.16;99876.38;5033116;28;19913;-65
2022/01/31 09:27:28;;;;;;;;;;;;;;;9.31;54.69;99869.81;5033575;28;19921;-65
2022/01/31 09:29:54;;;;;;;;;;;;;;;9.15;54.00;99861.72;5033574;28;19920;-65
2022/01/31 09:32:23;;;;;;;;;;;;;;;9.29;55.66;99854.59;5033380;28;19917;-65
2022/01/31 09:34:48;;;;;;;;;;;;;;;9.77;54.19;99849.13;5033504;28;20007;-64
2022/01/31 09:37:14;;;;;;;;;;;;;;;9.76;52.50;99838.16;5033046;28;20015;-65
2022/01/31 09:39:41;;;;;;;;;;;;;;;9.71;53.33;99829.84;5032929;28;20267;-65
2022/01/31 09:42:13;;;;;;;;;;;;;;;9.99;53.58;99835.81;5033102;28;19920;-65
2022/01/31 09:44:47;;;;;;;;;;;;;;;9.67;51.85;99828.25;5032993;28;20315;-65
2022/01/31 09:48:31;;;;;;;;;;;;;;;9.97;50.01;99821.50;5033111;28;19921;-65
2022/01/31 09:50:10;;;;;;;;;;;;;;;9.80;49.48;99819.44;5032796;28;20355;-65
2022/01/31 09:52:36;;;;;;;;;;;;;;;9.86;47.33;99803.22;5033159;28;19913;-65
2022/01/31 09:55:01;;;;;;;;;;;;;;;9.99;47.89;99804.50;5032909;28;19913;-65
2022/01/31 09:57:26;;;;;;;;;;;;;;;10.05;46.74;99805.19;5032792;28;20383;-66
2022/01/31 09:59:51;;;;;;;;;;;;;;;10.13;45.96;99803.28;5032841;28;20425;-65
2022/01/31 10:02:18;;;;;;;;;;;;;;;10.01;46.67;99795.16;5032394;28;20021;-65
2022/01/31 10:04:45;;;;;;;;;;;;;;;10.31;46.24;99804.44;5032506;28;20403;-64
2022/01/31 10:07:11;;;;;;;;;;;;;;;10.36;46.25;99790.72;5032930;28;19909;-65
2022/01/31 10:09:37;;;;;;;;;;;;;;;10.32;45.32;99789.16;5032554;28;19913;-65
2022/01/31 10:12:06;;;;;;;;;;;;;;;10.21;44.45;99778.50;5032593;28;19944;-64
2022/01/31 10:17:25;;;;;;;;;;;;;;;10.91;45.19;99753.41;5032285;28;20433;-65
2022/01/31 10:19:53;;;;;;;;;;;;;;;10.54;45.75;99745.31;5032695;28;19913;-66
2022/01/31 10:22:18;;;;;;;;;;;;;;;10.77;44.59;99747.94;5032472;28;19913;-65
2022/01/31 10:24:45;;;;;;;;;;;;;;;10.76;45.12;99744.56;5032438;28;20003;-66
2022/01/31 10:27:10;;;;;;;;;;;;;;;11.04;44.26;99739.38;5032341;28;19913;-65
2022/01/31 10:29:36;;;;;;;;;;;;;;;10.88;44.91;99744.16;5032033;28;20058;-65
2022/01/31 10:32:03;;;;;;;;;;;;;;;11.10;42.48;99741.72;5032398;28;19920;-64
2022/01/31 10:34:31;;;;;;;;;;;;;;;10.99;43.01;99731.09;5031871;28;20455;-64
2022/01/31 10:37:04;;;;;;;;;;;;;;;11.13;41.96;99724.63;5031109;28;20306;-67
2022/01/31 10:53:21;;;;;;;;;;;;;;;11.10;41.44;99686.59;5030474;28;19971;-63
2022/01/31 10:55:54;;;;;;;;;;;;;;;11.70;41.49;99681.06;5031901;28;19913;-63
2022/01/31 10:58:19;;;;;;;;;;;;;;;11.43;41.44;99669.28;5031628;28;19909;-63
2022/01/31 11:00:45;;;;;;;;;;;;;;;11.21;41.19;99676.06;5032091;28;19917;-63
2022/01/31 11:03:28;;;;;;;;;;;;;;;11.65;40.79;99677.81;5031643;28;19927;-64
2022/01/31 11:05:54;;;;;;;;;;;;;;;10.79;39.70;99668.19;5031842;28;19913;-64
2022/01/31 11:08:19;;;;;;;;;;;;;;;11.46;39.37;99669.19;5031684;28;19917;-63
2022/01/31 11:10:45;;;;;;;;;;;;;;;11.09;40.71;99666.31;5031272;28;19928;-64
2022/01/31 11:13:11;;;;;;;;;;;;;;;11.70;38.74;99647.94;5031405;28;20359;-64
2022/01/31 11:15:37;;;;;;;;;;;;;;;11.28;40.22;99645.25;5031197;28;19962;-64
2022/01/31 11:18:02;;;;;;;;;;;;;;;11.24;39.16;99637.75;5031548;28;20055;-64
2022/01/31 11:20:28;;;;;;;;;;;;;;;11.42;40.00;99639.66;5030833;28;20056;-63
2022/01/31 11:22:58;;;;;;;;;;;;;;;11.69;39.40;99645.44;5031658;28;19913;-64
2022/01/31 11:25:26;;;;;;;;;;;;;;;11.95;38.83;99645.28;5031169;28;20375;-63
2022/01/31 11:27:53;;;;;;;;;;;;;;;12.30;38.44;99636.25;5046491;28;19913;-64
2022/01/31 11:30:18;;;;;;;;;;;;;;;12.00;39.02;99639.09;5031006;28;19959;-64
2022/01/31 11:32:45;;;;;;;;;;;;;;;12.98;37.46;99631.63;5031034;28;20014;-64
2022/01/31 11:35:11;;;;;;;;;;;;;;;12.68;38.55;99617.63;5031231;28;19913;-64
2022/01/31 11:37:37;;;;;;;;;;;;;;;12.85;38.01;99620.31;5031331;28;19909;-64
2022/01/31 11:40:08;;;;;;;;;;;;;;;12.48;38.36;99615.09;5031223;28;19944;-64
2022/01/31 11:42:34;;;;;;;;;;;;;;;12.61;38.42;99601.78;5030824;28;19924;-64
2022/01/31 11:45:00;;;;;;;;;;;;;;;12.60;37.58;99609.47;5031194;28;20336;-64
2022/01/31 11:47:27;;;;;;;;;;;;;;;12.56;37.83;99600.28;5030980;28;20419;-64
2022/01/31 11:49:55;;;;;;;;;;;;;;;13.77;37.28;99588.84;5031240;28;20038;-64
2022/01/31 11:52:21;;;;;;;;;;;;;;;13.38;36.91;99598.38;5029425;28;19940;-65
2022/01/31 11:54:52;;;;;;;;;;;;;;;13.47;36.87;99590.28;5031223;28;20239;-64
2022/01/31 11:57:20;;;;;;;;;;;;;;;12.69;38.01;99586.97;5030565;28;19909;-64
2022/01/31 11:59:50;;;;;;;;;;;;;;;12.71;35.93;99586.91;5029311;28;20013;-64
2022/01/31 12:02:15;;;;;;;;;;;;;;;12.74;37.12;99581.66;5029585;28;20322;-65
2022/01/31 12:04:45;;;;;;;;;;;;;;;12.61;37.07;99581.38;5030918;28;19968;-65
2022/01/31 12:07:28;;;;;;;;;;;;;;;12.73;36.33;99582.56;5046048;28;19996;-65
2022/01/31 12:09:55;;;;;;;;;;;;;;;12.97;36.30;99571.28;5030537;28;19917;-65
2022/01/31 12:12:37;;;;;;;;;;;;;;;13.89;35.40;99557.63;5030667;28;19909;-64
2022/01/31 12:15:26;;;;;;;;;;;;;;;13.01;36.99;99562.63;5030832;28;19913;-65
2022/01/31 12:18:04;;;;;;;;;;;;;;;13.34;36.75;99557.72;5030944;28;19909;-65
2022/01/31 12:22:00;;;;;;;;;;;;;;;13.85;34.98;99545.88;5046015;28;20528;-65
2022/01/31 12:23:38;;;;;;;;;;;;;;;13.22;35.61;99550.63;5030552;28;19919;-65
2022/01/31 12:26:23;;;;;;;;;;;;;;;12.93;36.14;99547.63;5030711;28;20012;-65
2022/01/31 12:28:53;;;;;;;;;;;;;;;13.52;35.74;99537.28;5030234;28;20015;-65
2022/01/31 12:31:28;;;;;;;;;;;;;;;12.96;36.02;99546.66;5030757;28;19915;-65
2022/01/31 12:33:53;;;;;;;;;;;;;;;12.73;37.38;99540.03;5034588;28;20016;-65
2022/01/31 12:36:36;;;;;;;;;;;;;;;13.17;37.71;99543.19;5034342;28;19960;-65
2022/01/31 12:39:04;;;;;;;;;;;;;;;13.61;38.95;99533.44;5033045;28;20102;-65
2022/01/31 12:41:31;;;;;;;;;;;;;;;13.67;39.40;99530.59;5034310;28;19920;-65
2022/01/31 12:44:15;;;;;;;;;;;;;;;12.67;40.22;99539.47;5034492;28;20014;-65
2022/01/31 12:46:48;;;;;;;;;;;;;;;12.57;40.59;99538.22;5034237;28;19920;-65
2022/01/31 12:49:14;;;;;;;;;;;;;;;13.07;39.68;99541.97;5034067;28;20375;-65
2022/01/31 12:51:56;;;;;;;;;;;;;;;13.07;38.77;99536.84;5034195;28;19951;-65
2022/01/31 12:54:22;;;;;;;;;;;;;;;12.63;38.24;99553.25;5034128;28;20000;-64
2022/01/31 12:56:47;;;;;;;;;;;;;;;13.35;37.34;99539.78;5034152;28;19948;-64
2022/01/31 12:59:15;;;;;;;;;;;;;;;13.49;37.83;99537.41;5049245;28;19999;-64
2022/01/31 13:01:41;;;;;;;;;;;;;;;12.89;39.75;99550.41;5033862;28;20003;-64
2022/01/31 13:04:20;;;;;;;;;;;;;;;12.86;39.69;99530.09;5033607;28;20540;-64
2022/01/31 13:06:45;;;;;;;;;;;;;;;13.47;39.09;99539.22;5034166;28;19917;-64
2022/01/31 13:09:11;;;;;;;;;;;;;;;14.30;38.65;99530.03;5033669;28;20370;-64
2022/01/31 13:11:37;;;;;;;;;;;;;;;14.16;37.60;99529.06;5032560;28;19919;-64
2022/01/31 13:14:06;;;;;;;;;;;;;;;13.72;38.07;99516.72;5033772;28;20383;-64